Time;durP1;ratioP1;P1;durP2;ratioP2;P2;SDS_P1;SDS_P2;PMS_P1;PMS_P2;Temp;Humidity;BMP_temperature;BMP_pressure;BME280_temperature;BME280_humidity;BME280_pressure;Samples;Min_cycle;Max_cycle;Signal;HPM_P1;HPM_P2
2022/02/25 00:02:08;;;;;;;4.47;1.83;;;5.00;99.90;;;;;;5052818;28;20195;-80
2022/02/25 00:04:34;;;;;;;1.17;1.00;;;4.90;99.90;;;;;;5052746;28;20241;-80
2022/02/25 00:06:59;;;;;;;3.63;2.05;;;4.90;99.90;;;;;;5052766;28;20167;-80
2022/02/25 00:09:25;;;;;;;4.13;1.27;;;4.90;99.90;;;;;;5054109;28;20163;-80
2022/02/25 00:11:51;;;;;;;1.73;1.10;;;4.90;99.90;;;;;;5053956;28;20214;-80
2022/02/25 00:14:16;;;;;;;7.70;1.65;;;4.80;99.90;;;;;;5056422;28;20266;-79
2022/02/25 00:16:42;;;;;;;9.20;1.58;;;4.80;99.90;;;;;;5078727;28;20187;-80
2022/02/25 00:19:07;;;;;;;6.55;1.30;;;4.80;99.90;;;;;;5073941;28;20187;-79
2022/02/25 00:21:33;;;;;;;1.35;0.90;;;4.80;99.90;;;;;;5052457;28;20217;-79
2022/02/25 00:23:59;;;;;;;6.40;1.63;;;4.80;99.90;;;;;;5052401;28;20194;-80
2022/02/25 00:26:24;;;;;;;6.25;1.75;;;4.80;99.90;;;;;;5052392;28;20718;-79
2022/02/25 00:28:51;;;;;;;3.03;1.27;;;4.80;99.90;;;;;;5053662;28;20167;-79
2022/02/25 00:31:16;;;;;;;6.13;1.30;;;4.80;99.90;;;;;;5052315;28;20191;-80
2022/02/25 00:33:42;;;;;;;4.03;1.50;;;4.80;99.90;;;;;;5053423;28;20210;-81
2022/02/25 00:36:07;;;;;;;5.43;1.70;;;4.80;99.90;;;;;;5052246;28;20262;-80
2022/02/25 00:38:33;;;;;;;3.95;1.38;;;4.70;99.90;;;;;;5053373;28;20179;-80
2022/02/25 00:40:59;;;;;;;7.47;1.20;;;4.70;99.90;;;;;;5053494;28;20163;-81
2022/02/25 00:43:24;;;;;;;1.25;1.05;;;4.80;99.90;;;;;;5053391;28;20163;-80
2022/02/25 00:45:50;;;;;;;4.15;1.70;;;4.80;99.90;;;;;;5053181;28;20670;-79
2022/02/25 00:48:16;;;;;;;6.60;1.60;;;4.80;99.90;;;;;;5051963;28;20167;-81
2022/02/25 00:50:42;;;;;;;6.05;1.73;;;4.90;99.90;;;;;;5052070;28;20171;-81
2022/02/25 00:53:07;;;;;;;3.28;1.38;;;4.70;99.90;;;;;;5051894;28;20171;-80
2022/02/25 00:55:33;;;;;;;10.45;1.42;;;4.80;99.90;;;;;;5052268;28;20241;-79
2022/02/25 00:57:59;;;;;;;14.07;0.98;;;4.90;99.90;;;;;;5051574;28;20194;-80
2022/02/25 01:00:25;;;;;;;6.65;1.75;;;4.80;99.90;;;;;;5051611;28;20258;-79
2022/02/25 01:02:51;;;;;;;8.75;1.42;;;4.80;99.90;;;;;;5051764;28;20182;-81
2022/02/25 01:05:16;;;;;;;6.15;1.17;;;4.80;99.90;;;;;;5052800;28;20610;-80
2022/02/25 01:07:44;;;;;;;5.53;1.20;;;4.60;99.90;;;;;;5052783;28;20167;-80
2022/02/25 01:10:11;;;;;;;11.73;1.48;;;4.80;99.90;;;;;;5051658;28;20178;-81
2022/02/25 01:12:37;;;;;;;5.20;1.30;;;4.90;99.90;;;;;;5051651;28;20179;-80
2022/02/25 01:15:04;;;;;;;18.33;2.17;;;4.80;99.90;;;;;;5052659;28;20751;-80
2022/02/25 01:17:30;;;;;;;4.28;1.50;;;4.70;99.90;;;;;;5051638;28;20693;-80
2022/02/25 01:19:59;;;;;;;12.80;1.30;;;4.70;99.90;;;;;;5051439;28;20171;-80
2022/02/25 01:22:25;;;;;;;8.57;2.10;;;4.70;99.90;;;;;;5052739;28;20694;-79
2022/02/25 01:24:51;;;;;;;8.85;1.33;;;4.70;99.90;;;;;;5051432;28;20222;-80
2022/02/25 01:27:18;;;;;;;8.57;1.88;;;4.60;99.90;;;;;;5051201;28;20229;-81
2022/02/25 01:29:43;;;;;;;4.72;1.33;;;4.50;99.90;;;;;;5052939;28;20168;-80
2022/02/25 01:32:10;;;;;;;4.80;1.15;;;4.40;99.90;;;;;;5052656;28;20179;-82
2022/02/25 01:34:37;;;;;;;10.60;1.92;;;4.40;99.90;;;;;;5051478;28;20195;-80
2022/02/25 01:37:03;;;;;;;13.00;2.25;;;4.40;99.90;;;;;;5051415;28;20167;-80
2022/02/25 01:39:28;;;;;;;10.35;2.63;;;4.40;99.90;;;;;;5050949;28;20607;-80
2022/02/25 01:41:55;;;;;;;5.70;1.60;;;4.30;99.90;;;;;;5051402;28;20258;-80
2022/02/25 01:44:31;;;;;;;3.00;1.55;;;4.20;99.90;;;;;;5052295;28;20194;-80
2022/02/25 01:47:00;;;;;;;6.53;0.98;;;4.30;99.90;;;;;;5052165;28;20567;-81
2022/02/25 01:49:26;;;;;;;5.47;1.48;;;4.40;99.90;;;;;;5051974;28;20167;-80
2022/02/25 01:51:56;;;;;;;5.80;1.50;;;4.20;99.90;;;;;;5051748;28;20182;-81
2022/02/25 01:54:21;;;;;;;3.03;1.30;;;4.20;99.90;;;;;;5052596;28;20188;-82
2022/02/25 01:56:47;;;;;;;13.82;1.80;;;4.30;99.90;;;;;;5056393;28;20170;-80
2022/02/25 01:59:13;;;;;;;1.92;1.35;;;4.20;99.90;;;;;;5056585;28;20281;-80
2022/02/25 02:01:39;;;;;;;7.40;1.60;;;4.20;99.90;;;;;;5054276;28;20217;-80
2022/02/25 02:04:05;;;;;;;4.25;1.60;;;4.30;99.90;;;;;;5055019;28;20198;-81
2022/02/25 02:06:32;;;;;;;8.60;1.88;;;4.20;99.90;;;;;;5054442;28;20179;-81
2022/02/25 02:08:58;;;;;;;19.95;2.25;;;4.30;99.90;;;;;;5056740;28;20194;-81
2022/02/25 02:11:30;;;;;;;4.90;1.73;;;4.20;99.90;;;;;;5058351;28;20171;-80
2022/02/25 02:13:57;;;;;;;16.10;2.10;;;4.10;99.90;;;;;;5057433;28;20183;-80
2022/02/25 02:16:22;;;;;;;6.40;2.10;;;4.10;99.90;;;;;;5058128;28;20250;-81
2022/02/25 02:18:48;;;;;;;4.13;1.80;;;4.10;99.90;;;;;;5059029;28;20661;-82
2022/02/25 02:21:14;;;;;;;10.93;1.83;;;4.20;99.90;;;;;;5057914;28;20175;-81
2022/02/25 02:23:41;;;;;;;6.10;1.77;;;4.10;99.90;;;;;;5058194;28;20246;-80
2022/02/25 02:26:06;;;;;;;4.75;1.73;;;4.20;99.90;;;;;;5057352;28;20210;-80
2022/02/25 02:28:32;;;;;;;3.50;1.33;;;4.10;99.90;;;;;;5058383;28;20217;-81
2022/02/25 02:30:58;;;;;;;13.27;2.10;;;4.00;99.90;;;;;;5058615;28;20167;-81
2022/02/25 02:33:24;;;;;;;9.55;1.40;;;4.20;99.90;;;;;;5057524;28;20167;-81
2022/02/25 02:35:50;;;;;;;11.27;1.75;;;4.10;99.90;;;;;;5059797;28;20218;-81
2022/02/25 02:38:15;;;;;;;8.65;1.50;;;3.90;99.90;;;;;;5071451;28;20222;-79
2022/02/25 02:40:42;;;;;;;13.18;1.67;;;4.00;99.90;;;;;;5075551;28;20269;-81
2022/02/25 02:43:10;;;;;;;8.20;1.50;;;4.00;99.90;;;;;;5057833;28;20167;-81
2022/02/25 02:45:36;;;;;;;8.48;1.88;;;4.00;99.90;;;;;;5057777;28;20215;-81
2022/02/25 02:48:03;;;;;;;6.60;1.70;;;4.00;99.90;;;;;;5058501;28;20251;-80
2022/02/25 02:50:29;;;;;;;6.07;2.40;;;3.90;99.90;;;;;;5057659;28;20171;-81
2022/02/25 02:52:54;;;;;;;12.68;1.63;;;3.90;99.90;;;;;;5057054;28;20167;-80
2022/02/25 02:55:20;;;;;;;12.20;2.05;;;4.00;99.90;;;;;;5058186;28;20191;-81
2022/02/25 02:57:46;;;;;;;3.10;1.08;;;4.10;99.90;;;;;;5056580;28;20174;-82
2022/02/25 03:00:12;;;;;;;8.35;2.47;;;4.00;99.90;;;;;;5057847;28;20582;-82
2022/02/25 03:02:38;;;;;;;4.57;1.50;;;4.10;99.90;;;;;;5057141;28;20178;-80
2022/02/25 03:05:04;;;;;;;2.10;1.15;;;4.10;99.90;;;;;;5057661;28;20233;-81
2022/02/25 03:07:29;;;;;;;7.28;1.63;;;4.10;99.90;;;;;;5057379;28;20167;-80
2022/02/25 03:09:55;;;;;;;9.23;2.10;;;4.00;99.90;;;;;;5040782;28;20325;-81
2022/02/25 03:12:21;;;;;;;10.95;2.50;;;4.10;99.90;;;;;;5058972;28;20183;-81
2022/02/25 03:14:46;;;;;;;19.77;2.53;;;4.10;99.90;;;;;;5057256;28;20733;-80
2022/02/25 03:17:14;;;;;;;6.13;1.33;;;4.10;99.90;;;;;;5057341;28;20171;-80
2022/02/25 03:19:44;;;;;;;8.50;1.38;;;4.00;99.90;;;;;;5058609;28;20191;-81
2022/02/25 03:22:11;;;;;;;4.70;1.40;;;3.80;99.90;;;;;;5059329;28;20678;-81
2022/02/25 03:24:37;;;;;;;5.38;1.83;;;3.90;99.90;;;;;;5057827;28;20624;-81
2022/02/25 03:27:03;;;;;;;7.65;1.35;;;4.00;99.90;;;;;;5057969;28;20187;-81
2022/02/25 03:29:29;;;;;;;9.60;2.00;;;4.00;99.90;;;;;;5057882;28;20538;-81
2022/02/25 03:31:55;;;;;;;7.13;1.33;;;3.90;99.90;;;;;;5056928;28;20171;-81
2022/02/25 03:34:21;;;;;;;9.00;2.30;;;3.90;99.90;;;;;;5055304;28;20206;-82
2022/02/25 03:36:46;;;;;;;8.35;1.80;;;4.10;99.90;;;;;;5055652;28;20181;-81
2022/02/25 03:39:12;;;;;;;8.13;1.52;;;4.10;99.90;;;;;;5055683;28;20204;-82
2022/02/25 03:41:37;;;;;;;6.65;1.52;;;4.10;99.90;;;;;;5055633;28;20193;-82
2022/02/25 03:44:03;;;;;;;14.48;2.20;;;4.10;99.90;;;;;;5055579;28;20191;-81
2022/02/25 03:46:29;;;;;;;8.85;1.77;;;4.10;99.90;;;;;;5056580;28;20605;-82
2022/02/25 03:48:55;;;;;;;2.95;1.40;;;4.00;99.90;;;;;;5056883;28;20171;-81
2022/02/25 03:51:21;;;;;;;7.30;1.40;;;4.00;99.90;;;;;;5057145;28;20229;-82
2022/02/25 03:53:48;;;;;;;7.85;2.25;;;3.90;99.90;;;;;;5057034;28;20266;-81
2022/02/25 03:56:15;;;;;;;5.25;1.65;;;3.90;99.90;;;;;;5055931;28;20167;-81
2022/02/25 03:58:41;;;;;;;8.82;2.13;;;3.90;99.90;;;;;;5056528;28;20170;-80
2022/02/25 04:01:06;;;;;;;15.98;1.45;;;3.90;99.90;;;;;;5056785;28;20170;-81
2022/02/25 04:03:32;;;;;;;3.65;1.35;;;3.80;99.90;;;;;;5054970;28;20171;-80
2022/02/25 04:05:57;;;;;;;4.18;1.55;;;3.90;99.90;;;;;;5056404;28;20240;-80
2022/02/25 04:08:23;;;;;;;3.20;1.30;;;3.90;99.90;;;;;;5054705;28;20244;-80
2022/02/25 04:10:49;;;;;;;12.07;1.45;;;4.00;99.90;;;;;;5064541;28;20218;-80
2022/02/25 04:13:14;;;;;;;8.50;1.73;;;4.00;99.90;;;;;;5071651;28;20198;-80
2022/02/25 04:15:40;;;;;;;4.00;2.33;;;4.00;99.90;;;;;;5069937;28;20201;-81
2022/02/25 04:18:06;;;;;;;11.65;1.08;;;4.10;99.90;;;;;;5066799;28;20625;-82
2022/02/25 04:20:31;;;;;;;8.80;1.67;;;4.10;99.90;;;;;;5055214;28;20200;-80
2022/02/25 04:22:57;;;;;;;2.03;1.13;;;4.00;99.90;;;;;;5055782;28;20296;-80
2022/02/25 04:25:23;;;;;;;3.60;0.90;;;4.00;99.90;;;;;;5053908;28;20683;-80
2022/02/25 04:27:48;;;;;;;9.13;2.05;;;4.10;99.90;;;;;;5054228;28;20624;-80
2022/02/25 04:30:14;;;;;;;2.92;1.30;;;4.10;99.90;;;;;;5053291;28;20220;-81
2022/02/25 04:32:40;;;;;;;12.65;2.08;;;4.10;99.90;;;;;;5053834;28;20508;-80
2022/02/25 04:35:06;;;;;;;18.90;1.35;;;4.10;99.90;;;;;;5054042;28;20812;-82
2022/02/25 04:37:32;;;;;;;5.93;1.73;;;4.20;99.90;;;;;;5055842;28;20178;-81
2022/02/25 04:39:57;;;;;;;11.02;1.98;;;4.20;99.90;;;;;;5054141;28;20167;-81
2022/02/25 04:42:23;;;;;;;5.80;1.40;;;4.20;99.90;;;;;;5054705;28;20167;-81
2022/02/25 04:44:49;;;;;;;11.35;1.92;;;4.10;99.90;;;;;;5054102;28;20214;-81
2022/02/25 04:47:14;;;;;;;15.55;1.92;;;4.20;99.90;;;;;;5054469;28;20171;-80
2022/02/25 04:49:40;;;;;;;5.70;1.25;;;4.20;99.90;;;;;;5054172;28;20175;-79
2022/02/25 04:52:06;;;;;;;10.15;1.13;;;4.40;99.90;;;;;;5054310;28;20175;-81
2022/02/25 04:54:32;;;;;;;4.18;1.42;;;4.40;99.90;;;;;;5055217;28;20191;-81
2022/02/25 04:56:58;;;;;;;5.50;1.30;;;4.40;99.90;;;;;;5054440;28;20552;-80
2022/02/25 04:59:24;;;;;;;6.35;1.80;;;4.40;99.90;;;;;;5054331;28;20196;-80
2022/02/25 05:01:50;;;;;;;3.60;1.40;;;4.40;99.90;;;;;;5055826;28;20173;-81
2022/02/25 05:04:15;;;;;;;7.10;1.60;;;4.20;99.90;;;;;;5055395;28;20194;-80
2022/02/25 05:06:43;;;;;;;2.72;1.35;;;4.20;99.90;;;;;;5057405;28;20227;-80
2022/02/25 05:09:08;;;;;;;10.25;2.05;;;4.20;99.90;;;;;;5069446;28;20151;-80
2022/02/25 05:11:34;;;;;;;2.58;1.20;;;4.30;99.90;;;;;;5072885;28;20209;-80
2022/02/25 05:14:02;;;;;;;8.38;1.90;;;4.50;99.90;;;;;;5054182;28;20228;-80
2022/02/25 05:21:56;;;;;;;3.92;1.20;;;4.60;99.90;;;;;;5054833;28;20178;-80
2022/02/25 05:24:23;;;;;;;7.35;1.88;;;4.70;99.90;;;;;;5055258;28;20199;-80
2022/02/25 05:26:49;;;;;;;10.40;1.55;;;4.80;99.90;;;;;;5053869;28;20167;-80
2022/02/25 05:29:14;;;;;;;4.68;2.08;;;4.80;99.90;;;;;;5052983;28;20666;-80
2022/02/25 05:31:40;;;;;;;10.32;2.63;;;4.80;99.90;;;;;;5052737;28;20178;-81
2022/02/25 05:34:06;;;;;;;7.18;1.63;;;4.60;99.90;;;;;;5050915;28;20187;-80
2022/02/25 05:36:31;;;;;;;11.18;2.05;;;4.60;99.90;;;;;;5052302;28;20567;-81
2022/02/25 05:38:57;;;;;;;8.73;1.35;;;4.70;99.90;;;;;;5052441;28;20716;-80
2022/02/25 05:41:23;;;;;;;7.93;1.80;;;4.50;99.90;;;;;;5054332;28;20261;-81
2022/02/25 05:43:49;;;;;;;2.72;1.27;;;4.50;99.90;;;;;;5056432;28;20175;-81
2022/02/25 05:46:15;;;;;;;5.47;1.70;;;4.50;99.90;;;;;;5054921;28;20268;-81
2022/02/25 05:48:40;;;;;;;9.60;1.60;;;4.60;99.90;;;;;;5056328;28;20210;-81
2022/02/25 05:51:07;;;;;;;13.57;1.42;;;4.60;99.90;;;;;;5054966;28;20210;-80
2022/02/25 05:53:32;;;;;;;3.40;1.25;;;4.60;99.90;;;;;;5055922;28;20167;-79
2022/02/25 05:55:59;;;;;;;4.40;1.58;;;4.70;99.90;;;;;;5056091;28;20190;-81
2022/02/25 05:58:24;;;;;;;10.77;2.10;;;4.80;99.90;;;;;;5054938;28;20167;-81
2022/02/25 06:00:50;;;;;;;10.93;1.88;;;4.80;99.90;;;;;;5054526;28;20224;-80
2022/02/25 06:03:16;;;;;;;4.22;1.10;;;4.90;99.90;;;;;;5055993;28;20159;-80
2022/02/25 06:05:42;;;;;;;11.43;1.85;;;4.90;99.90;;;;;;5055701;28;20199;-80
2022/02/25 06:08:08;;;;;;;14.02;1.67;;;5.00;99.90;;;;;;5054592;28;20175;-80
2022/02/25 06:10:34;;;;;;;6.82;1.27;;;5.00;99.90;;;;;;5054239;28;20368;-81
2022/02/25 06:13:00;;;;;;;13.30;2.13;;;5.00;99.90;;;;;;5055942;28;20164;-80
2022/02/25 06:15:26;;;;;;;10.63;1.60;;;5.10;99.90;;;;;;5054111;28;20191;-80
2022/02/25 06:17:52;;;;;;;5.03;1.52;;;5.20;99.90;;;;;;5054648;28;20674;-81
2022/02/25 06:20:19;;;;;;;5.70;1.58;;;5.20;99.90;;;;;;5055267;28;20209;-81
2022/02/25 06:22:45;;;;;;;7.18;1.85;;;5.20;99.90;;;;;;5054407;28;20168;-81
2022/02/25 06:25:13;;;;;;;11.38;1.90;;;5.30;99.90;;;;;;5055489;28;20225;-81
2022/02/25 06:27:39;;;;;;;8.63;1.58;;;5.30;99.90;;;;;;5055498;28;20167;-81
2022/02/25 06:30:07;;;;;;;3.60;1.30;;;5.30;99.90;;;;;;5055574;28;20163;-81
2022/02/25 06:32:33;;;;;;;5.63;1.73;;;5.40;99.90;;;;;;5055220;28;20501;-80
2022/02/25 06:34:59;;;;;;;10.90;2.10;;;5.40;99.90;;;;;;5055682;28;20186;-81
2022/02/25 06:37:27;;;;;;;10.98;2.03;;;5.40;99.90;;;;;;5054247;28;20186;-80
2022/02/25 06:39:52;;;;;;;9.52;1.85;;;5.40;99.90;;;;;;5054291;28;20175;-81
2022/02/25 06:42:18;;;;;;;6.68;1.95;;;5.50;99.90;;;;;;5055344;28;20163;-81
2022/02/25 06:44:43;;;;;;;10.02;1.58;;;5.70;99.90;;;;;;5055145;28;20203;-80
2022/02/25 06:47:09;;;;;;;6.97;1.67;;;5.60;99.90;;;;;;5053650;28;20174;-80
2022/02/25 06:49:35;;;;;;;9.20;1.75;;;5.50;99.90;;;;;;5053184;28;20313;-81
2022/02/25 06:52:01;;;;;;;3.72;1.58;;;5.50;99.90;;;;;;5053313;28;20159;-81
2022/02/25 06:54:27;;;;;;;8.75;1.92;;;5.60;99.90;;;;;;5053679;28;20273;-81
2022/02/25 06:56:52;;;;;;;16.23;1.50;;;5.60;99.90;;;;;;5053794;28;20274;-81
2022/02/25 06:59:18;;;;;;;14.15;1.40;;;5.80;99.90;;;;;;5055058;28;20170;-81
2022/02/25 07:01:44;;;;;;;5.63;1.52;;;5.70;99.90;;;;;;5053655;28;20716;-82
2022/02/25 07:04:09;;;;;;;10.10;2.45;;;5.60;99.90;;;;;;5054128;28;20534;-81
2022/02/25 07:06:38;;;;;;;12.55;2.13;;;5.60;99.90;;;;;;5053702;28;20237;-80
2022/02/25 07:09:05;;;;;;;7.80;2.20;;;5.70;99.90;;;;;;5055011;28;20250;-81
2022/02/25 07:11:32;;;;;;;12.68;1.52;;;5.80;99.90;;;;;;5054499;28;20254;-81
2022/02/25 07:13:57;;;;;;;9.60;1.75;;;5.80;99.90;;;;;;5054826;28;20648;-83
2022/02/25 07:16:23;;;;;;;23.35;3.85;;;5.80;99.90;;;;;;5054689;28;20178;-82
2022/02/25 07:18:48;;;;;;;12.23;2.17;;;5.90;99.90;;;;;;5053392;28;20167;-81
2022/02/25 07:21:14;;;;;;;10.60;2.10;;;5.90;99.90;;;;;;5054856;28;20192;-81
2022/02/25 07:23:40;;;;;;;12.88;1.88;;;5.90;99.90;;;;;;5054584;28;20170;-81
2022/02/25 07:26:09;;;;;;;9.02;2.40;;;5.80;99.90;;;;;;5054915;28;20248;-81
2022/02/25 07:28:35;;;;;;;9.00;2.00;;;5.80;99.90;;;;;;5053061;28;20266;-81
2022/02/25 07:31:00;;;;;;;13.15;1.70;;;5.70;99.90;;;;;;5053060;28;20257;-81
2022/02/25 07:33:26;;;;;;;10.88;2.50;;;5.60;99.90;;;;;;5055616;28;20167;-82
2022/02/25 07:35:53;;;;;;;9.20;1.95;;;5.80;99.90;;;;;;5069341;28;20211;-80
2022/02/25 07:38:19;;;;;;;7.35;2.45;;;5.90;99.90;;;;;;5074119;28;20175;-80
2022/02/25 07:40:44;;;;;;;12.70;2.00;;;6.00;99.90;;;;;;5055136;28;20531;-79
2022/02/25 07:43:12;;;;;;;9.90;1.48;;;5.90;99.90;;;;;;5055219;28;20167;-80
2022/02/25 07:45:38;;;;;;;7.35;1.75;;;5.90;99.90;;;;;;5055516;28;20249;-81
2022/02/25 07:48:07;;;;;;;21.98;2.45;;;6.00;99.90;;;;;;5055088;28;20167;-79
2022/02/25 07:50:33;;;;;;;6.05;1.20;;;5.90;99.90;;;;;;5055313;28;20530;-78
2022/02/25 07:52:58;;;;;;;12.38;2.30;;;5.90;99.90;;;;;;5055154;28;20186;-79
2022/02/25 07:55:24;;;;;;;13.30;2.38;;;6.00;99.90;;;;;;5057294;28;20214;-81
2022/02/25 07:57:49;;;;;;;9.82;1.77;;;6.10;99.90;;;;;;5059556;28;20171;-83
2022/02/25 08:00:17;;;;;;;9.85;1.60;;;6.20;99.90;;;;;;5060834;28;20162;-82
2022/02/25 08:02:44;;;;;;;10.30;2.25;;;6.30;99.90;;;;;;5053491;28;20191;-82
2022/02/25 08:05:10;;;;;;;5.43;1.83;;;6.30;99.90;;;;;;5048762;28;20466;-82
2022/02/25 08:07:35;;;;;;;8.57;1.67;;;6.40;99.90;;;;;;5043901;28;20357;-80
2022/02/25 08:10:02;;;;;;;8.35;2.03;;;6.40;99.90;;;;;;5035078;28;20176;-80
2022/02/25 08:12:28;;;;;;;9.57;2.05;;;6.30;99.90;;;;;;5048826;28;20175;-81
2022/02/25 08:14:53;;;;;;;8.00;2.22;;;6.10;99.90;;;;;;5051894;28;20245;-83
2022/02/25 08:17:21;;;;;;;7.25;1.55;;;6.10;99.90;;;;;;5053291;28;20167;-82
2022/02/25 08:19:47;;;;;;;10.00;2.13;;;6.30;99.90;;;;;;5054488;28;20163;-83
2022/02/25 08:22:13;;;;;;;16.02;1.85;;;6.30;99.90;;;;;;5052427;28;20658;-83
2022/02/25 08:24:39;;;;;;;24.73;2.65;;;6.50;99.90;;;;;;5052301;28;20202;-81
2022/02/25 08:27:04;;;;;;;10.75;1.83;;;6.60;99.90;;;;;;5054383;28;20181;-83
2022/02/25 08:29:30;;;;;;;8.82;2.10;;;6.80;99.90;;;;;;5066033;28;20705;-81
2022/02/25 08:31:56;;;;;;;6.80;2.30;;;7.00;99.90;;;;;;5066387;28;20171;-82
2022/02/25 08:34:21;;;;;;;10.82;2.22;;;6.80;99.90;;;;;;5067074;28;20198;-82
2022/02/25 08:36:47;;;;;;;5.97;1.85;;;6.80;99.90;;;;;;5062607;28;20524;-81
2022/02/25 08:39:13;;;;;;;12.25;2.22;;;6.70;99.90;;;;;;5056889;28;20175;-81
2022/02/25 08:41:38;;;;;;;19.17;3.13;;;6.90;99.90;;;;;;5054540;28;20171;-83
2022/02/25 08:44:04;;;;;;;22.67;2.63;;;7.00;99.90;;;;;;5053055;28;20189;-83
2022/02/25 08:46:31;;;;;;;10.73;1.95;;;7.00;99.90;;;;;;5054019;28;20218;-82
2022/02/25 08:48:58;;;;;;;7.97;2.08;;;7.10;99.90;;;;;;5052643;28;20171;-82
2022/02/25 08:51:25;;;;;;;13.07;2.40;;;7.00;99.90;;;;;;5057830;28;20167;-81
2022/02/25 08:53:51;;;;;;;5.82;1.77;;;7.20;99.90;;;;;;5053264;28;20171;-81
2022/02/25 08:56:16;;;;;;;6.07;1.73;;;7.30;99.90;;;;;;5057192;28;20167;-81
2022/02/25 08:58:42;;;;;;;6.43;1.55;;;7.20;99.90;;;;;;5054717;28;20224;-82
2022/02/25 09:01:07;;;;;;;12.52;2.40;;;7.20;99.90;;;;;;5051995;28;20246;-81
2022/02/25 09:03:33;;;;;;;15.02;2.30;;;7.10;99.90;;;;;;5055456;28;20178;-80
2022/02/25 09:05:59;;;;;;;8.63;1.90;;;7.20;99.90;;;;;;5052285;28;20623;-81
2022/02/25 09:08:24;;;;;;;16.35;2.22;;;7.30;99.90;;;;;;5051108;28;20294;-82
2022/02/25 09:10:50;;;;;;;19.95;2.83;;;7.50;99.90;;;;;;5050982;28;20536;-81
2022/02/25 09:13:16;;;;;;;10.30;2.25;;;7.50;99.90;;;;;;5050958;28;20656;-81
2022/02/25 09:15:42;;;;;;;6.47;2.45;;;7.60;99.90;;;;;;5049424;28;20244;-81
2022/02/25 09:18:10;;;;;;;13.93;3.50;;;7.50;99.90;;;;;;5052022;28;20171;-81
2022/02/25 09:20:37;;;;;;;11.27;3.10;;;7.40;99.90;;;;;;5050797;28;20648;-80
2022/02/25 09:23:03;;;;;;;15.07;3.35;;;7.30;99.90;;;;;;5049604;28;20174;-81
2022/02/25 09:25:29;;;;;;;11.23;2.90;;;7.40;99.90;;;;;;5051092;28;20627;-80
2022/02/25 09:27:57;;;;;;;14.20;3.20;;;7.40;99.90;;;;;;5042205;28;20195;-81
2022/02/25 09:30:24;;;;;;;12.75;2.20;;;7.60;99.90;;;;;;5032367;28;20164;-81
2022/02/25 09:32:50;;;;;;;7.05;1.90;;;8.00;99.90;;;;;;5039831;28;20533;-83
2022/02/25 09:35:16;;;;;;;15.48;2.28;;;8.00;99.90;;;;;;5052166;28;20175;-82
2022/02/25 09:37:42;;;;;;;10.35;2.00;;;8.00;99.90;;;;;;5051888;28;20250;-82
2022/02/25 09:40:19;;;;;;;5.38;1.95;;;8.00;99.90;;;;;;5050185;28;20170;-82
2022/02/25 09:42:45;;;;;;;15.00;2.85;;;8.30;99.90;;;;;;5050205;28;20202;-82
2022/02/25 09:45:12;;;;;;;22.27;2.65;;;8.30;99.90;;;;;;5050345;28;20214;-82
2022/02/25 09:47:39;;;;;;;13.25;2.67;;;8.50;99.90;;;;;;5051704;28;20163;-82
2022/02/25 09:50:08;;;;;;;9.63;2.33;;;8.40;99.90;;;;;;5050616;28;20167;-82
2022/02/25 09:52:36;;;;;;;9.52;2.30;;;8.50;99.90;;;;;;5051851;28;20739;-82
2022/02/25 09:55:05;;;;;;;21.08;3.17;;;8.40;99.90;;;;;;5052280;28;20670;-80
2022/02/25 09:57:31;;;;;;;15.25;2.28;;;8.30;99.90;;;;;;5052107;28;20524;-80
2022/02/25 09:59:57;;;;;;;16.80;2.75;;;8.40;99.90;;;;;;5051947;28;20163;-81
2022/02/25 10:02:41;;;;;;;10.70;3.55;;;8.60;99.90;;;;;;5050851;28;20175;-81
2022/02/25 10:05:18;;;;;;;12.27;2.65;;;8.80;99.90;;;;;;5050424;28;20267;-82
2022/02/25 10:07:44;;;;;;;22.33;3.70;;;8.90;99.90;;;;;;5053535;28;20726;-79
2022/02/25 10:10:12;;;;;;;12.13;2.80;;;9.00;99.90;;;;;;5070306;28;20217;-83
2022/02/25 10:12:39;;;;;;;16.08;3.00;;;9.10;99.90;;;;;;5065814;28;20250;-82
2022/02/25 10:15:05;;;;;;;13.55;2.72;;;9.00;99.90;;;;;;5050004;28;20187;-82
2022/02/25 10:17:31;;;;;;;12.65;3.63;;;8.80;99.90;;;;;;5050316;28;20228;-83
2022/02/25 10:19:59;;;;;;;13.15;4.20;;;8.60;99.90;;;;;;5052103;28;20167;-82
2022/02/25 10:22:32;;;;;;;16.45;3.85;;;8.70;99.90;;;;;;5051083;28;20194;-82
2022/02/25 10:25:03;;;;;;;21.08;4.85;;;8.70;99.90;;;;;;5050426;28;20660;-81
2022/02/25 10:27:37;;;;;;;13.68;5.20;;;8.90;99.90;;;;;;5056733;28;20229;-82
2022/02/25 10:30:13;;;;;;;21.60;4.18;;;8.80;99.90;;;;;;5061802;28;20162;-84
2022/02/25 10:32:41;;;;;;;12.60;2.75;;;9.10;99.90;;;;;;5061133;28;20167;-84
2022/02/25 10:35:22;;;;;;;9.13;3.05;;;9.00;99.90;;;;;;5060330;28;20187;-83
2022/02/25 10:38:19;;;;;;;9.73;2.30;;;8.80;99.90;;;;;;5059270;28;20249;-81
2022/02/25 10:40:48;;;;;;;8.10;2.22;;;8.90;99.90;;;;;;5059926;28;20166;-79
2022/02/25 10:43:19;;;;;;;22.65;2.38;;;9.00;99.90;;;;;;5063205;28;20185;-81
2022/02/25 10:45:56;;;;;;;14.45;3.08;;;8.90;99.90;;;;;;5060990;28;20221;-81
2022/02/25 10:48:34;;;;;;;6.50;2.25;;;8.90;99.90;;;;;;5059496;28;20179;-82
2022/02/25 10:51:05;;;;;;;9.13;1.83;;;9.10;99.90;;;;;;5053119;28;20171;-81
2022/02/25 10:53:48;;;;;;;7.05;2.22;;;9.20;99.90;;;;;;5065118;28;20195;-82
2022/02/25 10:56:15;;;;;;;12.65;1.95;;;9.30;99.90;;;;;;5064161;28;20189;-81
2022/02/25 10:58:44;;;;;;;20.13;2.20;;;9.30;99.90;;;;;;5056403;28;20535;-85
2022/02/25 11:01:14;;;;;;;7.10;3.03;;;9.40;99.90;;;;;;5053430;28;20163;-82
2022/02/25 11:03:40;;;;;;;10.50;2.08;;;9.50;99.90;;;;;;5053148;28;20171;-82
2022/02/25 11:06:15;;;;;;;21.20;3.25;;;9.80;99.90;;;;;;5054658;28;20663;-81
2022/02/25 11:08:41;;;;;;;26.90;2.80;;;9.90;99.90;;;;;;5053633;28;20175;-82
2022/02/25 11:11:06;;;;;;;11.35;2.72;;;10.10;99.90;;;;;;5053231;28;20652;-82
2022/02/25 11:13:32;;;;;;;14.40;3.08;;;10.00;99.90;;;;;;5053565;28;20221;-83
2022/02/25 11:15:59;;;;;;;11.30;2.50;;;9.90;99.90;;;;;;5053314;28;20191;-82
2022/02/25 11:18:25;;;;;;;12.63;3.25;;;10.00;99.90;;;;;;5053185;28;20174;-84
2022/02/25 11:20:53;;;;;;;7.10;2.42;;;9.60;99.90;;;;;;5053131;28;20175;-83
2022/02/25 11:23:20;;;;;;;13.23;3.22;;;9.60;99.90;;;;;;5052988;28;20626;-82
2022/02/25 11:25:47;;;;;;;5.05;1.67;;;9.60;99.90;;;;;;5052760;28;20241;-82
2022/02/25 11:28:14;;;;;;;12.80;2.35;;;9.70;99.90;;;;;;5053304;28;20163;-82
2022/02/25 11:31:02;;;;;;;17.88;3.45;;;9.70;99.90;;;;;;5054217;28;20171;-81
2022/02/25 11:33:29;;;;;;;16.83;2.17;;;9.80;99.90;;;;;;5053230;28;20207;-81
2022/02/25 11:36:11;;;;;;;13.27;2.42;;;9.80;99.90;;;;;;5053960;28;20270;-83
2022/02/25 11:38:44;;;;;;;11.32;1.77;;;9.70;99.90;;;;;;5052805;28;20244;-89
2022/02/25 11:41:20;;;;;;;7.35;2.25;;;9.80;99.90;;;;;;5053191;28;20202;-81
2022/02/25 11:44:01;;;;;;;14.95;2.33;;;9.60;99.90;;;;;;5052949;28;20190;-83
2022/02/25 11:46:32;;;;;;;17.95;2.40;;;9.60;99.90;;;;;;5053552;28;20226;-82
2022/02/25 11:49:24;;;;;;;9.13;2.28;;;9.70;99.90;;;;;;5058143;28;20167;-82
2022/02/25 11:51:58;;;;;;;5.75;1.75;;;9.70;99.90;;;;;;5060676;28;20167;-82
2022/02/25 11:54:33;;;;;;;13.70;3.30;;;9.50;99.90;;;;;;5055963;28;20206;-82
2022/02/25 11:56:59;;;;;;;18.17;2.28;;;9.30;99.90;;;;;;5052666;28;20182;-81
2022/02/25 11:59:33;;;;;;;11.38;3.58;;;9.20;99.90;;;;;;5052522;28;20167;-82
2022/02/25 12:02:09;;;;;;;13.95;1.70;;;9.40;99.90;;;;;;5053853;28;20171;-82
2022/02/25 12:04:39;;;;;;;15.05;2.83;;;9.40;99.90;;;;;;5053655;28;20644;-83
2022/02/25 12:07:12;;;;;;;7.90;1.85;;;9.40;99.90;;;;;;5054081;28;20664;-82
2022/02/25 12:09:48;;;;;;;14.40;2.35;;;9.40;99.90;;;;;;5052938;28;20181;-82
2022/02/25 12:12:23;;;;;;;5.60;1.70;;;9.40;99.90;;;;;;5054477;28;20276;-81
2022/02/25 12:15:15;;;;;;;8.45;1.75;;;9.60;99.90;;;;;;5053653;28;20206;-82
2022/02/25 12:17:56;;;;;;;8.48;1.80;;;9.50;99.90;;;;;;5052703;28;20214;-82
2022/02/25 12:20:44;;;;;;;12.50;2.45;;;9.50;99.90;;;;;;5052218;28;20202;-82
2022/02/25 12:23:18;;;;;;;18.63;3.97;;;9.50;99.90;;;;;;5051707;28;20167;-82
2022/02/25 12:25:46;;;;;;;8.18;2.83;;;9.50;99.90;;;;;;5052796;28;20202;-82
2022/02/25 12:28:27;;;;;;;22.95;2.55;;;9.40;99.90;;;;;;5049884;28;20187;-82
2022/02/25 12:31:04;;;;;;;16.60;2.75;;;9.20;99.90;;;;;;5043440;28;20173;-83
2022/02/25 12:33:36;;;;;;;12.75;1.55;;;8.90;99.90;;;;;;5042316;28;20175;-81
2022/02/25 12:36:26;;;;;;;9.50;1.10;;;8.60;99.90;;;;;;5050252;28;20194;-82
2022/02/25 12:39:02;;;;;;;1.80;0.90;;;8.50;99.90;;;;;;5047605;28;20210;-82
2022/02/25 12:41:35;;;;;;;5.82;1.35;;;8.50;99.90;;;;;;5052794;28;20179;-81
2022/02/25 12:44:04;;;;;;;13.77;3.05;;;8.60;99.90;;;;;;5051805;28;20223;-82
2022/02/25 12:46:32;;;;;;;6.28;3.42;;;8.60;99.90;;;;;;5052041;28;20270;-81
2022/02/25 12:48:59;;;;;;;18.90;5.90;;;8.60;99.90;;;;;;5058940;28;20233;-82
2022/02/25 12:51:25;;;;;;;6.85;3.15;;;8.80;99.90;;;;;;5067856;28;20257;-82
2022/02/25 12:54:00;;;;;;;17.77;5.30;;;8.90;99.90;;;;;;5066012;28;20202;-82
2022/02/25 12:56:28;;;;;;;6.18;2.20;;;9.00;99.90;;;;;;5061553;28;20620;-82
2022/02/25 12:58:58;;;;;;;10.48;2.85;;;9.00;99.90;;;;;;5047012;28;20384;-82
2022/02/25 13:01:26;;;;;;;10.82;3.47;;;9.10;99.90;;;;;;5031523;28;20592;-81